sensor_id;sensor_type;location;lat;lon;timestamp;P1;durP1;ratioP1;P2;durP2;ratioP2
78820;SDS011;68171;13.882;99.692;2023-12-29T00:00:11;27.58;;;18.95;;
78820;SDS011;68171;13.882;99.692;2023-12-29T00:01:17;28.65;;;18.75;;
78820;SDS011;68171;13.882;99.692;2023-12-29T00:02:24;34.85;;;17.13;;
78820;SDS011;68171;13.882;99.692;2023-12-29T00:03:30;27.00;;;19.10;;
78820;SDS011;68171;13.882;99.692;2023-12-29T00:04:36;26.25;;;18.45;;
78820;SDS011;68171;13.882;99.692;2023-12-29T00:05:42;27.75;;;18.55;;
78820;SDS011;68171;13.882;99.692;2023-12-29T00:06:49;27.17;;;17.25;;
78820;SDS011;68171;13.882;99.692;2023-12-29T00:08:04;24.50;;;17.20;;
78820;SDS011;68171;13.882;99.692;2023-12-29T00:09:11;25.70;;;16.65;;
78820;SDS011;68171;13.882;99.692;2023-12-29T00:10:16;28.50;;;19.13;;
78820;SDS011;68171;13.882;99.692;2023-12-29T00:11:23;24.85;;;17.90;;
78820;SDS011;68171;13.882;99.692;2023-12-29T00:12:29;25.92;;;17.33;;
78820;SDS011;68171;13.882;99.692;2023-12-29T00:13:37;26.05;;;17.77;;
78820;SDS011;68171;13.882;99.692;2023-12-29T00:14:43;24.03;;;16.73;;
78820;SDS011;68171;13.882;99.692;2023-12-29T00:15:51;25.00;;;17.05;;
78820;SDS011;68171;13.882;99.692;2023-12-29T00:16:57;23.90;;;17.65;;
78820;SDS011;68171;13.882;99.692;2023-12-29T00:18:04;30.60;;;18.50;;
78820;SDS011;68171;13.882;99.692;2023-12-29T00:19:10;24.98;;;17.13;;
78820;SDS011;68171;13.882;99.692;2023-12-29T00:20:17;24.58;;;17.67;;
78820;SDS011;68171;13.882;99.692;2023-12-29T00:21:38;22.10;;;15.55;;
78820;SDS011;68171;13.882;99.692;2023-12-29T00:22:45;25.25;;;18.08;;
78820;SDS011;68171;13.882;99.692;2023-12-29T00:23:51;25.73;;;15.98;;
78820;SDS011;68171;13.882;99.692;2023-12-29T00:24:58;29.13;;;17.25;;
78820;SDS011;68171;13.882;99.692;2023-12-29T00:26:06;27.07;;;15.27;;
78820;SDS011;68171;13.882;99.692;2023-12-29T00:27:13;23.92;;;16.20;;
78820;SDS011;68171;13.882;99.692;2023-12-29T00:28:19;25.67;;;16.20;;
78820;SDS011;68171;13.882;99.692;2023-12-29T00:29:27;27.77;;;17.08;;
78820;SDS011;68171;13.882;99.692;2023-12-29T00:30:38;23.25;;;16.25;;
78820;SDS011;68171;13.882;99.692;2023-12-29T00:32:01;26.00;;;15.93;;
78820;SDS011;68171;13.882;99.692;2023-12-29T00:33:08;24.92;;;15.90;;
78820;SDS011;68171;13.882;99.692;2023-12-29T00:34:15;28.65;;;18.33;;
78820;SDS011;68171;13.882;99.692;2023-12-29T00:35:20;22.17;;;16.50;;
78820;SDS011;68171;13.882;99.692;2023-12-29T00:36:27;20.52;;;15.35;;
78820;SDS011;68171;13.882;99.692;2023-12-29T00:37:32;29.20;;;17.53;;
78820;SDS011;68171;13.882;99.692;2023-12-29T00:38:39;33.92;;;17.70;;
78820;SDS011;68171;13.882;99.692;2023-12-29T00:39:45;25.20;;;17.40;;
78820;SDS011;68171;13.882;99.692;2023-12-29T00:40:52;25.77;;;17.15;;
78820;SDS011;68171;13.882;99.692;2023-12-29T00:41:58;26.48;;;17.10;;
78820;SDS011;68171;13.882;99.692;2023-12-29T00:43:04;23.13;;;16.48;;
78820;SDS011;68171;13.882;99.692;2023-12-29T00:44:10;26.20;;;17.05;;
78820;SDS011;68171;13.882;99.692;2023-12-29T00:45:18;26.80;;;16.55;;
78820;SDS011;68171;13.882;99.692;2023-12-29T00:46:24;32.05;;;17.15;;
78820;SDS011;68171;13.882;99.692;2023-12-29T00:47:31;24.08;;;14.80;;
78820;SDS011;68171;13.882;99.692;2023-12-29T00:48:36;24.90;;;15.67;;
78820;SDS011;68171;13.882;99.692;2023-12-29T00:49:43;23.05;;;16.05;;
78820;SDS011;68171;13.882;99.692;2023-12-29T00:50:49;28.55;;;16.55;;
78820;SDS011;68171;13.882;99.692;2023-12-29T00:51:54;24.88;;;14.93;;
78820;SDS011;68171;13.882;99.692;2023-12-29T00:53:01;21.80;;;14.73;;
78820;SDS011;68171;13.882;99.692;2023-12-29T00:54:07;24.83;;;16.33;;
78820;SDS011;68171;13.882;99.692;2023-12-29T00:55:14;30.08;;;16.45;;
78820;SDS011;68171;13.882;99.692;2023-12-29T00:56:20;21.27;;;14.75;;
78820;SDS011;68171;13.882;99.692;2023-12-29T00:57:27;22.45;;;16.17;;
78820;SDS011;68171;13.882;99.692;2023-12-29T00:58:32;24.08;;;16.42;;
78820;SDS011;68171;13.882;99.692;2023-12-29T00:59:39;22.20;;;14.77;;
78820;SDS011;68171;13.882;99.692;2023-12-29T01:00:46;21.85;;;15.48;;
78820;SDS011;68171;13.882;99.692;2023-12-29T01:01:53;26.90;;;15.77;;
78820;SDS011;68171;13.882;99.692;2023-12-29T01:02:59;23.88;;;15.18;;
78820;SDS011;68171;13.882;99.692;2023-12-29T01:04:05;24.58;;;14.48;;
78820;SDS011;68171;13.882;99.692;2023-12-29T01:05:14;24.30;;;16.13;;
78820;SDS011;68171;13.882;99.692;2023-12-29T01:06:21;21.33;;;15.35;;
78820;SDS011;68171;13.882;99.692;2023-12-29T01:07:28;27.17;;;15.52;;
78820;SDS011;68171;13.882;99.692;2023-12-29T01:08:34;22.65;;;16.05;;
78820;SDS011;68171;13.882;99.692;2023-12-29T01:09:40;23.80;;;15.68;;
78820;SDS011;68171;13.882;99.692;2023-12-29T01:10:46;20.10;;;14.33;;
78820;SDS011;68171;13.882;99.692;2023-12-29T01:11:52;25.02;;;14.77;;
78820;SDS011;68171;13.882;99.692;2023-12-29T01:12:59;27.00;;;15.95;;
78820;SDS011;68171;13.882;99.692;2023-12-29T01:14:04;22.88;;;14.35;;
78820;SDS011;68171;13.882;99.692;2023-12-29T01:15:11;21.15;;;14.63;;
78820;SDS011;68171;13.882;99.692;2023-12-29T01:16:18;22.95;;;14.80;;
78820;SDS011;68171;13.882;99.692;2023-12-29T01:17:24;23.75;;;16.17;;
78820;SDS011;68171;13.882;99.692;2023-12-29T01:18:31;23.20;;;15.40;;
78820;SDS011;68171;13.882;99.692;2023-12-29T01:19:38;22.13;;;15.63;;
78820;SDS011;68171;13.882;99.692;2023-12-29T01:20:44;24.50;;;16.17;;
78820;SDS011;68171;13.882;99.692;2023-12-29T01:21:51;22.90;;;15.63;;
78820;SDS011;68171;13.882;99.692;2023-12-29T01:22:56;20.00;;;14.55;;
78820;SDS011;68171;13.882;99.692;2023-12-29T01:24:03;31.95;;;15.48;;
78820;SDS011;68171;13.882;99.692;2023-12-29T01:25:10;24.88;;;15.55;;
78820;SDS011;68171;13.882;99.692;2023-12-29T01:26:17;25.25;;;15.45;;
78820;SDS011;68171;13.882;99.692;2023-12-29T01:27:23;23.48;;;15.32;;
78820;SDS011;68171;13.882;99.692;2023-12-29T01:28:29;23.88;;;16.10;;
78820;SDS011;68171;13.882;99.692;2023-12-29T01:29:35;25.85;;;16.17;;
78820;SDS011;68171;13.882;99.692;2023-12-29T01:30:42;29.23;;;17.33;;
78820;SDS011;68171;13.882;99.692;2023-12-29T01:31:50;23.60;;;16.52;;
78820;SDS011;68171;13.882;99.692;2023-12-29T01:32:56;26.10;;;17.00;;
78820;SDS011;68171;13.882;99.692;2023-12-29T01:34:02;30.27;;;17.50;;
78820;SDS011;68171;13.882;99.692;2023-12-29T01:35:09;24.60;;;16.77;;
78820;SDS011;68171;13.882;99.692;2023-12-29T01:36:17;24.00;;;17.40;;
78820;SDS011;68171;13.882;99.692;2023-12-29T01:37:26;25.42;;;17.10;;
78820;SDS011;68171;13.882;99.692;2023-12-29T01:38:32;26.92;;;16.58;;
78820;SDS011;68171;13.882;99.692;2023-12-29T01:39:38;24.58;;;16.65;;
78820;SDS011;68171;13.882;99.692;2023-12-29T01:40:44;24.95;;;16.55;;
78820;SDS011;68171;13.882;99.692;2023-12-29T01:41:51;23.90;;;17.13;;
78820;SDS011;68171;13.882;99.692;2023-12-29T01:42:56;25.77;;;16.27;;
78820;SDS011;68171;13.882;99.692;2023-12-29T01:44:17;25.57;;;16.60;;
78820;SDS011;68171;13.882;99.692;2023-12-29T01:45:24;26.52;;;17.05;;
78820;SDS011;68171;13.882;99.692;2023-12-29T01:46:31;26.95;;;17.25;;
78820;SDS011;68171;13.882;99.692;2023-12-29T01:47:41;22.77;;;16.83;;
78820;SDS011;68171;13.882;99.692;2023-12-29T01:48:46;23.80;;;16.60;;
78820;SDS011;68171;13.882;99.692;2023-12-29T01:49:53;25.10;;;18.02;;
78820;SDS011;68171;13.882;99.692;2023-12-29T01:50:58;28.40;;;17.50;;
78820;SDS011;68171;13.882;99.692;2023-12-29T01:52:06;26.17;;;17.58;;
78820;SDS011;68171;13.882;99.692;2023-12-29T01:53:12;25.08;;;16.73;;
78820;SDS011;68171;13.882;99.692;2023-12-29T01:54:18;26.23;;;18.25;;
78820;SDS011;68171;13.882;99.692;2023-12-29T01:55:27;23.03;;;16.93;;
78820;SDS011;68171;13.882;99.692;2023-12-29T01:56:32;24.35;;;17.25;;
78820;SDS011;68171;13.882;99.692;2023-12-29T01:57:38;27.05;;;18.98;;
78820;SDS011;68171;13.882;99.692;2023-12-29T01:58:45;28.60;;;17.92;;
78820;SDS011;68171;13.882;99.692;2023-12-29T01:59:51;26.08;;;18.30;;
78820;SDS011;68171;13.882;99.692;2023-12-29T02:00:57;24.88;;;18.70;;
78820;SDS011;68171;13.882;99.692;2023-12-29T02:02:04;27.15;;;18.42;;
78820;SDS011;68171;13.882;99.692;2023-12-29T02:03:12;33.53;;;20.90;;
78820;SDS011;68171;13.882;99.692;2023-12-29T02:04:18;26.15;;;18.52;;
78820;SDS011;68171;13.882;99.692;2023-12-29T02:05:24;26.70;;;18.77;;
78820;SDS011;68171;13.882;99.692;2023-12-29T02:06:31;34.97;;;23.73;;
78820;SDS011;68171;13.882;99.692;2023-12-29T02:07:37;29.38;;;20.58;;
78820;SDS011;68171;13.882;99.692;2023-12-29T02:08:45;25.27;;;17.52;;
78820;SDS011;68171;13.882;99.692;2023-12-29T02:09:51;27.98;;;18.60;;
78820;SDS011;68171;13.882;99.692;2023-12-29T02:10:58;25.27;;;19.02;;
78820;SDS011;68171;13.882;99.692;2023-12-29T02:12:04;27.30;;;18.48;;
78820;SDS011;68171;13.882;99.692;2023-12-29T02:13:11;26.95;;;19.00;;
78820;SDS011;68171;13.882;99.692;2023-12-29T02:14:17;26.00;;;16.55;;
78820;SDS011;68171;13.882;99.692;2023-12-29T02:15:24;31.70;;;21.67;;
78820;SDS011;68171;13.882;99.692;2023-12-29T02:16:33;25.10;;;17.85;;
78820;SDS011;68171;13.882;99.692;2023-12-29T02:17:44;24.97;;;17.57;;
78820;SDS011;68171;13.882;99.692;2023-12-29T02:18:53;24.98;;;17.95;;
78820;SDS011;68171;13.882;99.692;2023-12-29T02:20:01;29.25;;;21.13;;
78820;SDS011;68171;13.882;99.692;2023-12-29T02:21:07;29.38;;;22.20;;
78820;SDS011;68171;13.882;99.692;2023-12-29T02:22:13;26.08;;;17.73;;
78820;SDS011;68171;13.882;99.692;2023-12-29T02:23:19;29.52;;;19.08;;
78820;SDS011;68171;13.882;99.692;2023-12-29T02:24:26;33.58;;;23.67;;
78820;SDS011;68171;13.882;99.692;2023-12-29T02:25:33;25.33;;;15.85;;
78820;SDS011;68171;13.882;99.692;2023-12-29T02:26:40;26.63;;;18.20;;
78820;SDS011;68171;13.882;99.692;2023-12-29T02:27:52;29.58;;;22.52;;
78820;SDS011;68171;13.882;99.692;2023-12-29T02:29:09;22.70;;;16.50;;
78820;SDS011;68171;13.882;99.692;2023-12-29T02:30:18;27.02;;;17.90;;
78820;SDS011;68171;13.882;99.692;2023-12-29T02:31:31;24.13;;;16.70;;
78820;SDS011;68171;13.882;99.692;2023-12-29T02:32:40;29.08;;;21.88;;
78820;SDS011;68171;13.882;99.692;2023-12-29T02:33:48;26.63;;;17.95;;
78820;SDS011;68171;13.882;99.692;2023-12-29T02:34:54;31.40;;;20.77;;
78820;SDS011;68171;13.882;99.692;2023-12-29T02:36:02;22.67;;;16.38;;
78820;SDS011;68171;13.882;99.692;2023-12-29T02:37:08;34.30;;;21.95;;
78820;SDS011;68171;13.882;99.692;2023-12-29T02:38:16;25.42;;;15.73;;
78820;SDS011;68171;13.882;99.692;2023-12-29T02:39:22;29.48;;;20.88;;
78820;SDS011;68171;13.882;99.692;2023-12-29T02:40:28;23.53;;;16.37;;
78820;SDS011;68171;13.882;99.692;2023-12-29T02:41:36;27.08;;;16.75;;
78820;SDS011;68171;13.882;99.692;2023-12-29T02:42:44;25.83;;;20.60;;
78820;SDS011;68171;13.882;99.692;2023-12-29T02:43:52;33.90;;;21.50;;
78820;SDS011;68171;13.882;99.692;2023-12-29T02:44:57;28.23;;;21.30;;
78820;SDS011;68171;13.882;99.692;2023-12-29T02:46:04;28.38;;;21.30;;
78820;SDS011;68171;13.882;99.692;2023-12-29T02:47:10;26.88;;;20.90;;
78820;SDS011;68171;13.882;99.692;2023-12-29T02:48:16;28.52;;;21.55;;
78820;SDS011;68171;13.882;99.692;2023-12-29T02:49:22;28.55;;;20.52;;
78820;SDS011;68171;13.882;99.692;2023-12-29T02:50:27;22.17;;;17.83;;
78820;SDS011;68171;13.882;99.692;2023-12-29T02:51:34;25.87;;;19.23;;
78820;SDS011;68171;13.882;99.692;2023-12-29T02:52:40;27.55;;;17.83;;
78820;SDS011;68171;13.882;99.692;2023-12-29T02:53:46;22.83;;;17.48;;
78820;SDS011;68171;13.882;99.692;2023-12-29T02:54:52;27.33;;;17.73;;
78820;SDS011;68171;13.882;99.692;2023-12-29T02:55:59;24.60;;;18.17;;
78820;SDS011;68171;13.882;99.692;2023-12-29T02:57:06;29.65;;;18.95;;
78820;SDS011;68171;13.882;99.692;2023-12-29T02:58:13;27.88;;;18.75;;
78820;SDS011;68171;13.882;99.692;2023-12-29T02:59:18;26.73;;;18.02;;
78820;SDS011;68171;13.882;99.692;2023-12-29T03:00:25;24.55;;;17.27;;
78820;SDS011;68171;13.882;99.692;2023-12-29T03:01:30;25.92;;;18.90;;
78820;SDS011;68171;13.882;99.692;2023-12-29T03:02:37;24.90;;;17.40;;
78820;SDS011;68171;13.882;99.692;2023-12-29T03:03:44;25.10;;;18.20;;
78820;SDS011;68171;13.882;99.692;2023-12-29T03:04:50;26.83;;;18.08;;
78820;SDS011;68171;13.882;99.692;2023-12-29T03:05:56;23.05;;;16.40;;
78820;SDS011;68171;13.882;99.692;2023-12-29T03:07:03;23.08;;;17.30;;
78820;SDS011;68171;13.882;99.692;2023-12-29T03:08:08;21.00;;;17.17;;
78820;SDS011;68171;13.882;99.692;2023-12-29T03:09:15;24.15;;;17.95;;
78820;SDS011;68171;13.882;99.692;2023-12-29T03:10:20;27.58;;;17.77;;
78820;SDS011;68171;13.882;99.692;2023-12-29T03:11:27;22.25;;;17.33;;
78820;SDS011;68171;13.882;99.692;2023-12-29T03:12:34;24.65;;;17.30;;
78820;SDS011;68171;13.882;99.692;2023-12-29T03:13:41;23.00;;;16.37;;
78820;SDS011;68171;13.882;99.692;2023-12-29T03:14:47;22.33;;;16.00;;
78820;SDS011;68171;13.882;99.692;2023-12-29T03:15:54;23.25;;;16.88;;
78820;SDS011;68171;13.882;99.692;2023-12-29T03:16:59;21.92;;;16.00;;
78820;SDS011;68171;13.882;99.692;2023-12-29T03:18:06;23.08;;;16.05;;
78820;SDS011;68171;13.882;99.692;2023-12-29T03:19:12;23.25;;;16.75;;
78820;SDS011;68171;13.882;99.692;2023-12-29T03:20:18;25.35;;;17.20;;
78820;SDS011;68171;13.882;99.692;2023-12-29T03:21:24;23.40;;;16.38;;
78820;SDS011;68171;13.882;99.692;2023-12-29T03:22:31;23.80;;;16.80;;
78820;SDS011;68171;13.882;99.692;2023-12-29T03:23:36;21.60;;;15.60;;
78820;SDS011;68171;13.882;99.692;2023-12-29T03:24:43;24.87;;;15.40;;
78820;SDS011;68171;13.882;99.692;2023-12-29T03:25:49;22.02;;;14.88;;
78820;SDS011;68171;13.882;99.692;2023-12-29T03:26:56;20.63;;;14.65;;
78820;SDS011;68171;13.882;99.692;2023-12-29T03:28:04;22.40;;;15.02;;
78820;SDS011;68171;13.882;99.692;2023-12-29T03:29:11;21.95;;;15.07;;
78820;SDS011;68171;13.882;99.692;2023-12-29T03:30:16;25.75;;;15.48;;
78820;SDS011;68171;13.882;99.692;2023-12-29T03:31:23;24.30;;;15.52;;
78820;SDS011;68171;13.882;99.692;2023-12-29T03:32:29;23.70;;;14.15;;
78820;SDS011;68171;13.882;99.692;2023-12-29T03:33:35;19.85;;;14.93;;
78820;SDS011;68171;13.882;99.692;2023-12-29T03:34:41;22.30;;;15.25;;
78820;SDS011;68171;13.882;99.692;2023-12-29T03:35:48;20.90;;;14.10;;
78820;SDS011;68171;13.882;99.692;2023-12-29T03:36:53;19.42;;;14.63;;
78820;SDS011;68171;13.882;99.692;2023-12-29T03:38:00;19.63;;;14.40;;
78820;SDS011;68171;13.882;99.692;2023-12-29T03:39:06;23.55;;;14.77;;
78820;SDS011;68171;13.882;99.692;2023-12-29T03:40:13;19.45;;;15.18;;
78820;SDS011;68171;13.882;99.692;2023-12-29T03:41:19;19.00;;;14.00;;
78820;SDS011;68171;13.882;99.692;2023-12-29T03:42:26;19.42;;;13.57;;
78820;SDS011;68171;13.882;99.692;2023-12-29T03:43:33;20.10;;;13.55;;
78820;SDS011;68171;13.882;99.692;2023-12-29T03:44:40;20.65;;;12.40;;
78820;SDS011;68171;13.882;99.692;2023-12-29T03:45:45;18.55;;;13.63;;
78820;SDS011;68171;13.882;99.692;2023-12-29T03:46:52;21.30;;;12.77;;
78820;SDS011;68171;13.882;99.692;2023-12-29T03:47:58;19.27;;;12.40;;
78820;SDS011;68171;13.882;99.692;2023-12-29T03:49:05;16.23;;;11.52;;
78820;SDS011;68171;13.882;99.692;2023-12-29T03:50:11;14.75;;;11.10;;
78820;SDS011;68171;13.882;99.692;2023-12-29T03:51:18;16.23;;;11.77;;
78820;SDS011;68171;13.882;99.692;2023-12-29T03:52:24;17.17;;;11.75;;
78820;SDS011;68171;13.882;99.692;2023-12-29T03:53:31;13.63;;;10.70;;
78820;SDS011;68171;13.882;99.692;2023-12-29T03:54:36;16.83;;;11.57;;
78820;SDS011;68171;13.882;99.692;2023-12-29T03:55:43;16.13;;;11.23;;
78820;SDS011;68171;13.882;99.692;2023-12-29T03:56:49;15.52;;;10.30;;
78820;SDS011;68171;13.882;99.692;2023-12-29T03:57:56;14.50;;;10.33;;
78820;SDS011;68171;13.882;99.692;2023-12-29T03:59:03;14.73;;;11.43;;
78820;SDS011;68171;13.882;99.692;2023-12-29T04:00:11;15.27;;;9.95;;
78820;SDS011;68171;13.882;99.692;2023-12-29T04:01:17;16.48;;;11.10;;
78820;SDS011;68171;13.882;99.692;2023-12-29T04:02:27;20.55;;;10.95;;
78820;SDS011;68171;13.882;99.692;2023-12-29T04:03:33;16.65;;;10.15;;
78820;SDS011;68171;13.882;99.692;2023-12-29T04:04:40;15.88;;;10.27;;
78820;SDS011;68171;13.882;99.692;2023-12-29T04:05:45;17.65;;;10.32;;
78820;SDS011;68171;13.882;99.692;2023-12-29T04:06:52;16.02;;;10.50;;
78820;SDS011;68171;13.882;99.692;2023-12-29T04:07:58;15.90;;;10.88;;
78820;SDS011;68171;13.882;99.692;2023-12-29T04:09:04;17.67;;;10.27;;
78820;SDS011;68171;13.882;99.692;2023-12-29T04:10:10;16.05;;;9.75;;
78820;SDS011;68171;13.882;99.692;2023-12-29T04:11:16;18.27;;;10.15;;
78820;SDS011;68171;13.882;99.692;2023-12-29T04:12:22;13.73;;;10.35;;
78820;SDS011;68171;13.882;99.692;2023-12-29T04:13:29;14.75;;;9.98;;
78820;SDS011;68171;13.882;99.692;2023-12-29T04:14:36;19.75;;;9.73;;
78820;SDS011;68171;13.882;99.692;2023-12-29T04:15:43;13.90;;;10.07;;
78820;SDS011;68171;13.882;99.692;2023-12-29T04:16:48;16.58;;;9.50;;
78820;SDS011;68171;13.882;99.692;2023-12-29T04:17:55;18.45;;;10.65;;
78820;SDS011;68171;13.882;99.692;2023-12-29T04:19:01;17.52;;;10.23;;
78820;SDS011;68171;13.882;99.692;2023-12-29T04:20:08;13.87;;;10.37;;
78820;SDS011;68171;13.882;99.692;2023-12-29T04:21:14;14.10;;;9.45;;
78820;SDS011;68171;13.882;99.692;2023-12-29T04:22:21;14.75;;;9.65;;
78820;SDS011;68171;13.882;99.692;2023-12-29T04:23:26;15.20;;;9.32;;
78820;SDS011;68171;13.882;99.692;2023-12-29T04:24:33;13.23;;;8.98;;
78820;SDS011;68171;13.882;99.692;2023-12-29T04:25:38;13.70;;;8.65;;
78820;SDS011;68171;13.882;99.692;2023-12-29T04:26:45;16.55;;;9.07;;
78820;SDS011;68171;13.882;99.692;2023-12-29T04:27:50;13.18;;;9.25;;
78820;SDS011;68171;13.882;99.692;2023-12-29T04:28:57;18.00;;;10.20;;
78820;SDS011;68171;13.882;99.692;2023-12-29T04:30:05;17.00;;;10.20;;
78820;SDS011;68171;13.882;99.692;2023-12-29T04:31:12;13.20;;;9.90;;
78820;SDS011;68171;13.882;99.692;2023-12-29T04:32:18;16.73;;;9.80;;
78820;SDS011;68171;13.882;99.692;2023-12-29T04:33:24;12.95;;;8.73;;
78820;SDS011;68171;13.882;99.692;2023-12-29T04:34:30;13.95;;;9.48;;
78820;SDS011;68171;13.882;99.692;2023-12-29T04:35:37;15.75;;;9.52;;
78820;SDS011;68171;13.882;99.692;2023-12-29T04:36:42;16.00;;;9.75;;
78820;SDS011;68171;13.882;99.692;2023-12-29T04:37:49;13.70;;;9.40;;
78820;SDS011;68171;13.882;99.692;2023-12-29T04:38:54;13.32;;;9.32;;
78820;SDS011;68171;13.882;99.692;2023-12-29T04:40:01;15.75;;;8.93;;
78820;SDS011;68171;13.882;99.692;2023-12-29T04:41:08;14.00;;;9.80;;
78820;SDS011;68171;13.882;99.692;2023-12-29T04:42:17;17.50;;;10.02;;
78820;SDS011;68171;13.882;99.692;2023-12-29T04:43:22;14.48;;;9.65;;
78820;SDS011;68171;13.882;99.692;2023-12-29T04:44:29;14.13;;;9.80;;
78820;SDS011;68171;13.882;99.692;2023-12-29T04:45:36;15.82;;;8.60;;
78820;SDS011;68171;13.882;99.692;2023-12-29T04:46:43;16.00;;;8.60;;
78820;SDS011;68171;13.882;99.692;2023-12-29T04:47:48;12.02;;;8.48;;
78820;SDS011;68171;13.882;99.692;2023-12-29T04:48:55;12.73;;;8.20;;
78820;SDS011;68171;13.882;99.692;2023-12-29T04:50:00;13.32;;;8.50;;
78820;SDS011;68171;13.882;99.692;2023-12-29T04:51:07;11.30;;;8.02;;
78820;SDS011;68171;13.882;99.692;2023-12-29T04:52:13;12.32;;;8.45;;
78820;SDS011;68171;13.882;99.692;2023-12-29T04:53:19;12.13;;;8.23;;
78820;SDS011;68171;13.882;99.692;2023-12-29T04:54:25;17.92;;;9.20;;
78820;SDS011;68171;13.882;99.692;2023-12-29T04:55:31;14.18;;;8.82;;
78820;SDS011;68171;13.882;99.692;2023-12-29T04:56:37;12.18;;;8.60;;
78820;SDS011;68171;13.882;99.692;2023-12-29T04:57:43;23.08;;;9.18;;
78820;SDS011;68171;13.882;99.692;2023-12-29T04:58:50;13.80;;;8.98;;
78820;SDS011;68171;13.882;99.692;2023-12-29T04:59:57;16.02;;;8.75;;
78820;SDS011;68171;13.882;99.692;2023-12-29T05:01:04;13.82;;;9.40;;
78820;SDS011;68171;13.882;99.692;2023-12-29T05:02:11;14.98;;;10.18;;
78820;SDS011;68171;13.882;99.692;2023-12-29T05:03:17;14.38;;;9.60;;
78820;SDS011;68171;13.882;99.692;2023-12-29T05:04:24;14.53;;;9.00;;
78820;SDS011;68171;13.882;99.692;2023-12-29T05:05:29;13.60;;;8.32;;
78820;SDS011;68171;13.882;99.692;2023-12-29T05:06:36;15.80;;;9.10;;
78820;SDS011;68171;13.882;99.692;2023-12-29T05:07:42;13.10;;;8.82;;
78820;SDS011;68171;13.882;99.692;2023-12-29T05:08:48;13.52;;;8.77;;
78820;SDS011;68171;13.882;99.692;2023-12-29T05:09:54;16.13;;;9.07;;
78820;SDS011;68171;13.882;99.692;2023-12-29T05:11:01;12.02;;;8.45;;
78820;SDS011;68171;13.882;99.692;2023-12-29T05:12:06;15.65;;;9.07;;
78820;SDS011;68171;13.882;99.692;2023-12-29T05:13:15;12.55;;;8.77;;
78820;SDS011;68171;13.882;99.692;2023-12-29T05:14:21;16.02;;;9.43;;
78820;SDS011;68171;13.882;99.692;2023-12-29T05:15:28;17.00;;;9.70;;
78820;SDS011;68171;13.882;99.692;2023-12-29T05:16:35;13.43;;;8.43;;
78820;SDS011;68171;13.882;99.692;2023-12-29T05:17:42;15.15;;;9.20;;
78820;SDS011;68171;13.882;99.692;2023-12-29T05:18:47;14.32;;;9.07;;
78820;SDS011;68171;13.882;99.692;2023-12-29T05:19:54;15.73;;;9.02;;
78820;SDS011;68171;13.882;99.692;2023-12-29T05:20:59;12.32;;;8.77;;
78820;SDS011;68171;13.882;99.692;2023-12-29T05:22:06;14.15;;;8.90;;
78820;SDS011;68171;13.882;99.692;2023-12-29T05:23:12;16.48;;;8.93;;
78820;SDS011;68171;13.882;99.692;2023-12-29T05:24:19;14.73;;;9.60;;
78820;SDS011;68171;13.882;99.692;2023-12-29T05:25:24;13.38;;;8.82;;
78820;SDS011;68171;13.882;99.692;2023-12-29T05:26:31;14.73;;;8.20;;
78820;SDS011;68171;13.882;99.692;2023-12-29T05:27:36;17.73;;;9.55;;
78820;SDS011;68171;13.882;99.692;2023-12-29T05:28:42;14.73;;;9.55;;
78820;SDS011;68171;13.882;99.692;2023-12-29T05:29:48;15.68;;;9.35;;
78820;SDS011;68171;13.882;99.692;2023-12-29T05:30:54;17.30;;;9.75;;
78820;SDS011;68171;13.882;99.692;2023-12-29T05:32:05;15.57;;;9.07;;
78820;SDS011;68171;13.882;99.692;2023-12-29T05:33:10;18.73;;;10.40;;
78820;SDS011;68171;13.882;99.692;2023-12-29T05:34:17;15.93;;;9.77;;
78820;SDS011;68171;13.882;99.692;2023-12-29T05:35:23;14.32;;;9.88;;
78820;SDS011;68171;13.882;99.692;2023-12-29T05:36:30;12.82;;;8.50;;
78820;SDS011;68171;13.882;99.692;2023-12-29T05:37:38;15.60;;;8.73;;
78820;SDS011;68171;13.882;99.692;2023-12-29T05:38:46;14.57;;;8.95;;
78820;SDS011;68171;13.882;99.692;2023-12-29T05:39:51;13.13;;;8.98;;
78820;SDS011;68171;13.882;99.692;2023-12-29T05:40:58;12.63;;;8.90;;
78820;SDS011;68171;13.882;99.692;2023-12-29T05:42:04;14.93;;;8.70;;
78820;SDS011;68171;13.882;99.692;2023-12-29T05:43:11;12.10;;;9.10;;
78820;SDS011;68171;13.882;99.692;2023-12-29T05:44:17;15.82;;;8.93;;
78820;SDS011;68171;13.882;99.692;2023-12-29T05:45:23;13.73;;;8.75;;
78820;SDS011;68171;13.882;99.692;2023-12-29T05:46:29;14.25;;;9.15;;
78820;SDS011;68171;13.882;99.692;2023-12-29T05:47:37;11.82;;;8.40;;
78820;SDS011;68171;13.882;99.692;2023-12-29T05:48:43;12.03;;;8.00;;
78820;SDS011;68171;13.882;99.692;2023-12-29T05:49:49;15.60;;;8.77;;
78820;SDS011;68171;13.882;99.692;2023-12-29T05:50:55;18.08;;;8.85;;
78820;SDS011;68171;13.882;99.692;2023-12-29T05:52:02;11.82;;;8.77;;
78820;SDS011;68171;13.882;99.692;2023-12-29T05:53:08;14.88;;;8.35;;
78820;SDS011;68171;13.882;99.692;2023-12-29T05:54:15;13.68;;;8.25;;
78820;SDS011;68171;13.882;99.692;2023-12-29T05:55:20;12.82;;;8.43;;
78820;SDS011;68171;13.882;99.692;2023-12-29T05:56:27;11.48;;;8.25;;
78820;SDS011;68171;13.882;99.692;2023-12-29T05:57:32;15.30;;;8.25;;
78820;SDS011;68171;13.882;99.692;2023-12-29T05:58:40;12.75;;;7.90;;
78820;SDS011;68171;13.882;99.692;2023-12-29T05:59:45;12.63;;;8.33;;
78820;SDS011;68171;13.882;99.692;2023-12-29T06:00:52;11.77;;;7.68;;
78820;SDS011;68171;13.882;99.692;2023-12-29T06:01:58;12.30;;;7.90;;
78820;SDS011;68171;13.882;99.692;2023-12-29T06:03:07;10.27;;;7.70;;
78820;SDS011;68171;13.882;99.692;2023-12-29T06:04:13;13.00;;;8.73;;
78820;SDS011;68171;13.882;99.692;2023-12-29T06:05:20;23.45;;;8.75;;
78820;SDS011;68171;13.882;99.692;2023-12-29T06:06:25;13.98;;;9.27;;
78820;SDS011;68171;13.882;99.692;2023-12-29T06:07:31;13.20;;;9.30;;
78820;SDS011;68171;13.882;99.692;2023-12-29T06:08:37;11.07;;;8.32;;
78820;SDS011;68171;13.882;99.692;2023-12-29T06:09:43;13.60;;;8.10;;
78820;SDS011;68171;13.882;99.692;2023-12-29T06:10:49;11.53;;;7.37;;
78820;SDS011;68171;13.882;99.692;2023-12-29T06:11:55;10.35;;;7.57;;
78820;SDS011;68171;13.882;99.692;2023-12-29T06:13:02;11.60;;;7.78;;
78820;SDS011;68171;13.882;99.692;2023-12-29T06:14:08;15.10;;;8.70;;
78820;SDS011;68171;13.882;99.692;2023-12-29T06:15:15;12.63;;;9.23;;
78820;SDS011;68171;13.882;99.692;2023-12-29T06:16:21;13.60;;;8.18;;
78820;SDS011;68171;13.882;99.692;2023-12-29T06:17:47;13.77;;;8.27;;
78820;SDS011;68171;13.882;99.692;2023-12-29T06:18:56;13.27;;;8.73;;
78820;SDS011;68171;13.882;99.692;2023-12-29T06:20:03;10.85;;;8.10;;
78820;SDS011;68171;13.882;99.692;2023-12-29T06:21:09;14.10;;;9.00;;
78820;SDS011;68171;13.882;99.692;2023-12-29T06:22:16;11.80;;;8.07;;
78820;SDS011;68171;13.882;99.692;2023-12-29T06:23:24;12.50;;;8.47;;
78820;SDS011;68171;13.882;99.692;2023-12-29T06:24:33;13.32;;;9.07;;
78820;SDS011;68171;13.882;99.692;2023-12-29T06:25:41;16.90;;;8.13;;
78820;SDS011;68171;13.882;99.692;2023-12-29T06:26:49;11.68;;;8.20;;